Time;durP1;ratioP1;P1;durP2;ratioP2;P2;SDS_P1;SDS_P2;PMS_P1;PMS_P2;Temp;Humidity;BMP_temperature;BMP_pressure;BME280_temperature;BME280_humidity;BME280_pressure;Samples;Min_cycle;Max_cycle;Signal;HPM_P1;HPM_P2
2023/05/06 02:01:39;;;;;;;7.32;2.75;;;;;;;;;;4581838;27;20433;-76
2023/05/06 02:04:06;;;;;;;5.45;2.40;;;;;;;;;;4297977;33;20386;-73
2023/05/06 02:06:32;;;;;;;4.57;2.35;;;;;;;;;;4299930;33;20049;-73
2023/05/06 02:08:58;;;;;;;5.78;3.40;;;;;;;;;;4299549;33;20093;-73
2023/05/06 02:11:25;;;;;;;4.43;2.65;;;;;;;;;;4299212;33;20049;-76
2023/05/06 02:13:51;;;;;;;10.20;2.22;;;;;;;;;;4297918;33;20045;-81
2023/05/06 02:16:17;;;;;;;3.25;2.47;;;;;;;;;;4296284;33;20088;-75
2023/05/06 02:18:44;;;;;;;3.75;2.37;;;;;;;;;;4297714;33;20079;-73
2023/05/06 02:21:10;;;;;;;7.07;2.35;;;;;;;;;;4299476;33;20046;-74
2023/05/06 02:23:37;;;;;;;2.22;2.03;;;;;;;;;;4298973;33;20041;-74
2023/05/06 02:26:03;;;;;;;5.30;2.97;;;;;;;;;;4298379;33;20072;-74
2023/05/06 02:28:29;;;;;;;5.62;2.10;;;;;;;;;;4296111;33;20390;-77
2023/05/06 02:30:56;;;;;;;3.53;2.78;;;;;;;;;;4299043;33;20057;-75
2023/05/06 02:33:22;;;;;;;4.07;2.42;;;;;;;;;;4313146;33;20062;-73
2023/05/06 02:35:49;;;;;;;3.80;2.58;;;;;;;;;;4313948;33;20386;-73
2023/05/06 02:38:22;;;;;;;3.15;2.40;;;;;;;;;;4313067;33;20063;-89
2023/05/06 02:40:48;;;;;;;6.80;2.78;;;;;;;;;;4313384;33;20053;-74
2023/05/06 02:43:14;;;;;;;4.07;1.90;;;;;;;;;;4313712;33;20065;-75
2023/05/06 02:45:40;;;;;;;4.37;2.45;;;;;;;;;;4314374;33;20017;-73
2023/05/06 02:48:07;;;;;;;3.53;2.05;;;;;;;;;;4313109;33;20045;-74
2023/05/06 02:50:33;;;;;;;3.22;2.33;;;;;;;;;;4313844;33;20359;-89
2023/05/06 02:53:00;;;;;;;4.43;2.17;;;;;;;;;;4300346;33;20063;-80
2023/05/06 02:55:26;;;;;;;2.55;2.35;;;;;;;;;;4308693;33;20048;-76
2023/05/06 02:57:52;;;;;;;3.90;2.45;;;;;;;;;;4319794;33;20066;-74
2023/05/06 03:00:18;;;;;;;5.45;2.12;;;;;;;;;;4324838;33;20087;-73
2023/05/06 03:02:44;;;;;;;2.75;2.00;;;;;;;;;;4314550;33;20044;-74
2023/05/06 03:05:10;;;;;;;2.00;1.87;;;;;;;;;;4309743;33;20367;-73
2023/05/06 03:07:37;;;;;;;5.35;2.75;;;;;;;;;;4317338;33;20082;-74
2023/05/06 03:10:04;;;;;;;6.15;2.67;;;;;;;;;;4326769;33;20066;-73
2023/05/06 03:12:31;;;;;;;2.42;2.22;;;;;;;;;;4327003;33;20534;-74
2023/05/06 03:14:57;;;;;;;5.25;2.47;;;;;;;;;;4311342;33;20066;-83
2023/05/06 03:17:24;;;;;;;8.30;2.58;;;;;;;;;;4311639;33;20040;-77
2023/05/06 03:19:51;;;;;;;4.80;2.35;;;;;;;;;;4282843;33;20357;-73
2023/05/06 03:22:17;;;;;;;4.25;2.35;;;;;;;;;;4270738;33;20041;-74
2023/05/06 03:24:43;;;;;;;3.72;1.95;;;;;;;;;;4273534;33;20467;-75
2023/05/06 03:27:10;;;;;;;9.40;2.28;;;;;;;;;;4246048;33;20051;-85
2023/05/06 03:29:36;;;;;;;8.25;3.28;;;;;;;;;;4240214;33;20061;-78
2023/05/06 03:32:03;;;;;;;14.13;2.35;;;;;;;;;;4239540;33;20125;-73
2023/05/06 03:34:30;;;;;;;4.93;2.40;;;;;;;;;;4240143;33;20376;-73
2023/05/06 03:36:57;;;;;;;6.35;2.50;;;;;;;;;;4253960;33;20434;-72
2023/05/06 03:39:24;;;;;;;5.00;2.33;;;;;;;;;;4253164;33;20384;-76
2023/05/06 03:41:50;;;;;;;5.30;2.12;;;;;;;;;;4254217;33;20068;-73
2023/05/06 03:44:17;;;;;;;2.80;1.95;;;;;;;;;;4253538;33;20042;-73
2023/05/06 03:46:44;;;;;;;4.32;2.50;;;;;;;;;;4251123;33;20042;-73
2023/05/06 03:49:10;;;;;;;3.35;2.55;;;;;;;;;;4252152;33;20034;-74
2023/05/06 03:51:36;;;;;;;4.00;2.40;;;;;;;;;;4279310;33;20042;-74
2023/05/06 03:54:03;;;;;;;5.70;2.00;;;;;;;;;;4279767;33;20959;-75
2023/05/06 03:56:30;;;;;;;5.05;2.28;;;;;;;;;;4279371;33;20041;-73
2023/05/06 03:58:56;;;;;;;6.43;2.65;;;;;;;;;;4281693;33;20059;-78
2023/05/06 04:01:23;;;;;;;6.50;2.08;;;;;;;;;;4280736;33;20053;-89
2023/05/06 04:03:50;;;;;;;2.62;1.90;;;;;;;;;;4293579;33;20045;-73
2023/05/06 04:06:18;;;;;;;3.60;1.73;;;;;;;;;;4295281;33;20478;-74
2023/05/06 04:08:43;;;;;;;6.70;1.90;;;;;;;;;;4304252;33;20180;-73
2023/05/06 04:11:17;;;;;;;4.57;2.37;;;;;;;;;;4296797;33;20045;-76
2023/05/06 04:13:45;;;;;;;15.95;2.42;;;;;;;;;;4297852;33;20041;-81
2023/05/06 04:16:12;;;;;;;11.82;2.55;;;;;;;;;;4298189;33;20082;-76
2023/05/06 04:18:38;;;;;;;3.55;2.40;;;;;;;;;;4278651;33;20100;-74
2023/05/06 04:21:05;;;;;;;5.03;2.17;;;;;;;;;;4278313;33;20061;-73
2023/05/06 04:23:32;;;;;;;2.37;2.03;;;;;;;;;;4279736;33;20062;-73
2023/05/06 04:25:59;;;;;;;4.60;2.25;;;;;;;;;;4278034;33;20514;-81
2023/05/06 04:28:26;;;;;;;2.28;2.08;;;;;;;;;;4279216;33;20030;-73
2023/05/06 04:30:54;;;;;;;6.85;2.17;;;;;;;;;;4285174;33;20053;-75
2023/05/06 04:33:21;;;;;;;2.40;2.17;;;;;;;;;;4278530;33;20048;-73
2023/05/06 04:35:53;;;;;;;3.55;1.87;;;;;;;;;;4264506;33;20058;-74
2023/05/06 04:38:20;;;;;;;13.45;2.05;;;;;;;;;;4251580;33;20067;-74
2023/05/06 04:40:48;;;;;;;7.90;2.42;;;;;;;;;;4264063;33;20369;-73
2023/05/06 04:43:15;;;;;;;5.78;2.15;;;;;;;;;;4262429;33;20052;-76
2023/05/06 04:45:47;;;;;;;2.92;1.85;;;;;;;;;;4259045;33;20042;-73
2023/05/06 04:48:16;;;;;;;7.55;2.40;;;;;;;;;;4235040;33;20831;-73
2023/05/06 04:50:42;;;;;;;4.53;1.87;;;;;;;;;;4236883;33;20092;-73
2023/05/06 04:53:09;;;;;;;6.05;1.80;;;;;;;;;;4237461;33;20082;-73
2023/05/06 04:55:36;;;;;;;3.08;2.00;;;;;;;;;;4236568;33;20076;-75
2023/05/06 04:58:02;;;;;;;2.42;1.75;;;;;;;;;;4235278;33;20542;-82
2023/05/06 05:00:28;;;;;;;6.68;1.90;;;;;;;;;;4234924;33;20493;-74
2023/05/06 05:02:54;;;;;;;6.75;1.83;;;;;;;;;;4235183;33;20106;-73
2023/05/06 05:05:21;;;;;;;9.32;2.15;;;;;;;;;;4237553;33;20046;-74
2023/05/06 05:07:47;;;;;;;2.35;2.08;;;;;;;;;;4224164;33;20047;-73
2023/05/06 05:10:15;;;;;;;5.87;2.28;;;;;;;;;;4227605;33;20488;-78
2023/05/06 05:12:48;;;;;;;2.97;1.98;;;;;;;;;;4221392;33;20095;-75
2023/05/06 05:15:14;;;;;;;2.62;1.95;;;;;;;;;;4223345;33;20043;-74
2023/05/06 05:17:40;;;;;;;2.40;1.80;;;;;;;;;;4221856;33;20039;-73
2023/05/06 05:20:07;;;;;;;2.45;2.05;;;;;;;;;;4248092;33;20852;-73
2023/05/06 05:22:33;;;;;;;2.95;1.98;;;;;;;;;;4256989;33;20045;-73
2023/05/06 05:25:00;;;;;;;4.35;2.22;;;;;;;;;;4249470;33;20492;-73
2023/05/06 05:27:26;;;;;;;4.93;2.28;;;;;;;;;;4250580;33;20165;-74
2023/05/06 05:29:53;;;;;;;6.28;2.20;;;;;;;;;;4249573;33;20046;-74
2023/05/06 05:32:20;;;;;;;3.47;1.85;;;;;;;;;;4246823;33;20494;-72
2023/05/06 05:34:47;;;;;;;5.82;2.20;;;;;;;;;;4236735;33;20189;-73
2023/05/06 05:37:13;;;;;;;3.55;1.65;;;;;;;;;;4220545;33;20088;-75
2023/05/06 05:39:39;;;;;;;8.07;2.50;;;;;;;;;;4245783;33;20054;-74
2023/05/06 05:42:05;;;;;;;7.93;2.00;;;;;;;;;;4252588;33;20046;-72
2023/05/06 05:44:36;;;;;;;6.32;1.90;;;;;;;;;;4255052;33;20372;-80
2023/05/06 05:47:04;;;;;;;7.40;1.92;;;;;;;;;;4251966;33;20047;-77
2023/05/06 05:49:31;;;;;;;6.00;1.80;;;;;;;;;;4251671;33;20515;-73
2023/05/06 05:51:57;;;;;;;5.20;2.15;;;;;;;;;;4245605;33;20056;-74
2023/05/06 05:54:25;;;;;;;2.28;1.80;;;;;;;;;;4251371;33;20046;-75
2023/05/06 05:56:51;;;;;;;1.95;1.85;;;;;;;;;;4271225;33;20041;-76
2023/05/06 05:59:17;;;;;;;14.68;2.15;;;;;;;;;;4254974;33;20105;-73
2023/05/06 06:01:44;;;;;;;7.87;2.17;;;;;;;;;;4245469;33;20050;-73
2023/05/06 06:04:10;;;;;;;12.57;1.90;;;;;;;;;;4237310;33;20055;-75
2023/05/06 06:06:36;;;;;;;8.27;1.87;;;;;;;;;;4238531;33;20038;-77
2023/05/06 06:09:03;;;;;;;14.13;1.95;;;;;;;;;;4251746;33;20431;-73
2023/05/06 06:11:29;;;;;;;1.55;1.48;;;;;;;;;;4251555;33;20358;-76
2023/05/06 06:13:56;;;;;;;1.90;1.75;;;;;;;;;;4250962;33;20072;-74
2023/05/06 06:16:23;;;;;;;3.97;1.85;;;;;;;;;;4251438;33;20423;-74
2023/05/06 06:18:49;;;;;;;5.85;2.25;;;;;;;;;;4249780;33;20439;-82
2023/05/06 06:21:15;;;;;;;1.92;1.40;;;;;;;;;;4251289;33;20058;-76
2023/05/06 06:23:41;;;;;;;5.70;1.65;;;;;;;;;;4252536;33;20062;-76
2023/05/06 06:26:08;;;;;;;5.12;1.92;;;;;;;;;;4254501;33;20122;-74
2023/05/06 06:28:34;;;;;;;6.75;2.00;;;;;;;;;;4251718;33;20037;-73
2023/05/06 06:31:00;;;;;;;3.83;2.75;;;;;;;;;;4285962;33;20568;-74
2023/05/06 06:33:27;;;;;;;2.15;1.90;;;;;;;;;;4290632;33;20395;-80
2023/05/06 06:35:53;;;;;;;3.90;2.60;;;;;;;;;;4294108;33;20095;-78
2023/05/06 06:38:19;;;;;;;7.62;2.58;;;;;;;;;;4293839;33;20079;-73
2023/05/06 06:40:46;;;;;;;2.08;1.90;;;;;;;;;;4293926;33;20062;-75
2023/05/06 06:43:12;;;;;;;3.97;2.00;;;;;;;;;;4293317;33;20136;-74
2023/05/06 06:45:45;;;;;;;2.95;1.62;;;;;;;;;;4291504;33;20037;-75
2023/05/06 06:48:12;;;;;;;8.07;1.95;;;;;;;;;;4293895;33;20049;-75
2023/05/06 06:50:37;;;;;;;20.35;2.30;;;;;;;;;;4302524;33;20465;-74
2023/05/06 06:53:04;;;;;;;6.50;3.00;;;;;;;;;;4302074;33;20049;-75
2023/05/06 06:55:30;;;;;;;4.82;1.80;;;;;;;;;;4294034;33;20090;-74
2023/05/06 06:57:56;;;;;;;13.60;2.10;;;;;;;;;;4293331;33;20061;-74
2023/05/06 07:00:22;;;;;;;2.65;2.05;;;;;;;;;;4296057;33;20044;-73
2023/05/06 07:02:48;;;;;;;4.90;1.77;;;;;;;;;;4295699;33;20092;-74
2023/05/06 07:05:14;;;;;;;2.00;1.90;;;;;;;;;;4295036;33;20076;-75
2023/05/06 07:07:41;;;;;;;5.65;1.92;;;;;;;;;;4295504;33;20079;-81
2023/05/06 07:10:07;;;;;;;3.45;2.42;;;;;;;;;;4274461;33;20410;-73
2023/05/06 07:12:33;;;;;;;2.10;1.55;;;;;;;;;;4278653;33;20199;-75
2023/05/06 07:14:59;;;;;;;5.97;1.98;;;;;;;;;;4278741;33;20038;-74
2023/05/06 07:17:26;;;;;;;4.45;1.95;;;;;;;;;;4272870;33;20050;-78
2023/05/06 07:19:52;;;;;;;4.75;1.95;;;;;;;;;;4250816;33;20041;-74
2023/05/06 07:22:18;;;;;;;3.65;2.17;;;;;;;;;;4249513;33;20115;-76
2023/05/06 07:24:44;;;;;;;2.87;1.75;;;;;;;;;;4235810;33;20076;-75
2023/05/06 07:27:11;;;;;;;2.30;2.10;;;;;;;;;;4237838;33;20059;-81
2023/05/06 07:29:37;;;;;;;8.95;2.00;;;;;;;;;;4237203;33;20583;-73
2023/05/06 07:32:03;;;;;;;7.85;2.17;;;;;;;;;;4235384;33;20864;-75
2023/05/06 07:34:30;;;;;;;6.05;2.20;;;;;;;;;;4237540;33;20543;-76
2023/05/06 07:36:56;;;;;;;6.87;1.60;;;;;;;;;;4237816;33;20368;-75
2023/05/06 07:39:22;;;;;;;2.92;1.87;;;;;;;;;;4244583;33;20191;-77
2023/05/06 07:41:49;;;;;;;3.85;1.90;;;;;;;;;;4246067;33;20554;-75
2023/05/06 07:44:14;;;;;;;4.28;2.08;;;;;;;;;;4253533;33;20434;-77
2023/05/06 07:46:41;;;;;;;3.20;2.25;;;;;;;;;;4253688;33;20038;-74
2023/05/06 07:49:07;;;;;;;4.50;2.03;;;;;;;;;;4249463;33;20065;-73
2023/05/06 07:51:33;;;;;;;5.70;3.00;;;;;;;;;;4261479;33;20046;-74
2023/05/06 07:54:00;;;;;;;4.75;1.85;;;;;;;;;;4264385;33;20079;-76
2023/05/06 07:56:26;;;;;;;13.93;2.92;;;;;;;;;;4288793;33;20049;-75
2023/05/06 07:58:52;;;;;;;2.50;1.77;;;;;;;;;;4295545;33;20098;-75
2023/05/06 08:01:18;;;;;;;9.55;2.10;;;;;;;;;;4296195;33;20101;-75
2023/05/06 08:03:50;;;;;;;6.50;1.75;;;;;;;;;;4293451;33;20750;-75
2023/05/06 08:06:16;;;;;;;2.47;1.75;;;;;;;;;;4292577;33;20403;-74
2023/05/06 08:08:42;;;;;;;2.58;2.30;;;;;;;;;;4290253;33;20056;-75
2023/05/06 08:11:09;;;;;;;6.80;2.35;;;;;;;;;;4297228;33;20053;-77
2023/05/06 08:13:35;;;;;;;2.10;2.00;;;;;;;;;;4291425;33;20045;-75
2023/05/06 08:16:01;;;;;;;8.43;3.17;;;;;;;;;;4292253;33;20088;-77
2023/05/06 08:18:27;;;;;;;2.87;2.15;;;;;;;;;;4288970;33;20044;-76
2023/05/06 08:20:54;;;;;;;6.47;2.33;;;;;;;;;;4295568;33;20087;-74
2023/05/06 08:23:20;;;;;;;3.83;1.80;;;;;;;;;;4290892;33;20065;-78
2023/05/06 08:25:46;;;;;;;11.90;2.03;;;;;;;;;;4296833;33;20050;-76
2023/05/06 08:28:12;;;;;;;1.73;1.62;;;;;;;;;;4301658;33;20049;-73
2023/05/06 08:30:38;;;;;;;2.00;1.45;;;;;;;;;;4293350;33;20122;-75
2023/05/06 08:33:05;;;;;;;13.75;2.00;;;;;;;;;;4295932;33;20065;-74
2023/05/06 08:35:31;;;;;;;2.95;2.00;;;;;;;;;;4300101;33;20057;-74
2023/05/06 08:37:57;;;;;;;7.60;1.70;;;;;;;;;;4294347;33;20037;-75
2023/05/06 08:40:25;;;;;;;4.55;3.37;;;;;;;;;;4296521;33;20044;-78
2023/05/06 08:42:53;;;;;;;4.05;1.85;;;;;;;;;;4288316;33;20071;-73
2023/05/06 08:45:19;;;;;;;6.70;2.00;;;;;;;;;;4297079;33;20058;-74
2023/05/06 08:47:46;;;;;;;2.97;1.80;;;;;;;;;;4294183;33;20053;-74
2023/05/06 08:50:12;;;;;;;3.00;1.87;;;;;;;;;;4290382;33;20497;-75
2023/05/06 08:52:39;;;;;;;8.48;2.10;;;;;;;;;;4288291;33;20092;-76
2023/05/06 08:55:06;;;;;;;5.68;2.20;;;;;;;;;;4287460;33;20064;-75
2023/05/06 08:57:32;;;;;;;4.80;2.05;;;;;;;;;;4290319;33;20201;-75
2023/05/06 09:00:09;;;;;;;8.10;2.42;;;;;;;;;;4295345;33;20074;-74
2023/05/06 09:02:36;;;;;;;10.57;2.47;;;;;;;;;;4291878;33;20057;-78
2023/05/06 09:05:03;;;;;;;4.35;1.87;;;;;;;;;;4294161;33;20103;-75
2023/05/06 09:07:29;;;;;;;3.40;1.90;;;;;;;;;;4296306;33;20079;-76
2023/05/06 09:09:55;;;;;;;3.03;2.15;;;;;;;;;;4299656;33;20041;-73
2023/05/06 09:12:22;;;;;;;7.53;2.70;;;;;;;;;;4301779;33;20079;-83
2023/05/06 09:14:49;;;;;;;6.65;2.92;;;;;;;;;;4294278;33;20079;-75
2023/05/06 09:17:26;;;;;;;4.78;2.05;;;;;;;;;;4315243;33;20040;-76
2023/05/06 09:19:55;;;;;;;5.60;1.98;;;;;;;;;;4311181;33;20052;-77
2023/05/06 09:22:29;;;;;;;19.40;2.65;;;;;;;;;;4317624;33;20125;-77
2023/05/06 09:24:56;;;;;;;8.10;2.37;;;;;;;;;;4319881;33;20056;-76
2023/05/06 09:27:26;;;;;;;5.07;2.22;;;;;;;;;;4321970;33;20073;-76
2023/05/06 09:30:04;;;;;;;1.83;1.73;;;;;;;;;;4323295;33;20493;-78
2023/05/06 09:32:30;;;;;;;4.78;2.50;;;;;;;;;;4329821;33;20044;-75
2023/05/06 09:34:57;;;;;;;8.35;1.73;;;;;;;;;;4323524;33;20056;-75
2023/05/06 09:37:25;;;;;;;4.40;2.25;;;;;;;;;;4323953;33;20083;-76
2023/05/06 09:39:55;;;;;;;5.82;2.12;;;;;;;;;;4323564;33;20066;-75
2023/05/06 09:42:22;;;;;;;3.10;2.20;;;;;;;;;;4323273;33;20386;-76
2023/05/06 09:44:49;;;;;;;3.47;2.67;;;;;;;;;;4323535;33;20060;-75
2023/05/06 09:47:16;;;;;;;16.77;2.30;;;;;;;;;;4323018;33;20924;-75
2023/05/06 09:49:42;;;;;;;6.28;2.62;;;;;;;;;;4308586;33;20045;-76
2023/05/06 09:52:08;;;;;;;5.80;1.98;;;;;;;;;;4295602;33;20122;-76
2023/05/06 09:54:35;;;;;;;2.62;2.20;;;;;;;;;;4295309;33;20053;-76
2023/05/06 09:57:03;;;;;;;11.05;2.47;;;;;;;;;;4297111;33;21150;-75
2023/05/06 09:59:30;;;;;;;4.87;2.58;;;;;;;;;;4296790;33;20053;-76
2023/05/06 10:01:57;;;;;;;12.57;2.37;;;;;;;;;;4296664;33;20119;-75
2023/05/06 10:04:32;;;;;;;4.72;2.37;;;;;;;;;;4290652;33;20057;-79
2023/05/06 10:06:59;;;;;;;4.87;2.30;;;;;;;;;;4295739;33;20110;-74
2023/05/06 10:09:33;;;;;;;2.92;2.20;;;;;;;;;;4296767;33;20411;-75
2023/05/06 10:12:00;;;;;;;6.35;2.28;;;;;;;;;;4293271;33;20406;-75
2023/05/06 10:14:26;;;;;;;8.25;2.65;;;;;;;;;;4294579;33;20054;-76
2023/05/06 10:16:53;;;;;;;6.90;2.78;;;;;;;;;;4299454;33;20040;-82
2023/05/06 10:19:23;;;;;;;4.95;2.42;;;;;;;;;;4291476;33;20067;-74
2023/05/06 10:22:13;;;;;;;3.35;2.30;;;;;;;;;;4301320;33;20391;-74
2023/05/06 10:24:50;;;;;;;6.00;2.60;;;;;;;;;;4292184;33;20050;-78
2023/05/06 10:27:17;;;;;;;6.30;1.95;;;;;;;;;;4281688;33;20041;-75
2023/05/06 10:29:56;;;;;;;3.83;2.40;;;;;;;;;;4275735;33;20168;-73
2023/05/06 10:32:25;;;;;;;16.90;3.00;;;;;;;;;;4277358;33;20056;-85
2023/05/06 10:34:53;;;;;;;7.25;2.50;;;;;;;;;;4274675;33;20077;-75
2023/05/06 10:37:24;;;;;;;6.87;1.95;;;;;;;;;;4276621;33;20041;-75
2023/05/06 10:39:55;;;;;;;3.50;2.00;;;;;;;;;;4234778;33;20069;-74
2023/05/06 10:42:27;;;;;;;10.02;2.20;;;;;;;;;;4230775;33;20030;-74
2023/05/06 10:44:58;;;;;;;13.98;2.22;;;;;;;;;;4234869;33;20479;-74
2023/05/06 10:47:24;;;;;;;2.75;2.10;;;;;;;;;;4227745;33;20450;-78
2023/05/06 10:50:20;;;;;;;12.75;2.35;;;;;;;;;;4231001;33;20073;-75
2023/05/06 10:52:46;;;;;;;8.15;2.92;;;;;;;;;;4197170;34;20051;-75
2023/05/06 10:55:26;;;;;;;14.73;3.30;;;;;;;;;;4199265;34;20212;-74
2023/05/06 10:57:54;;;;;;;20.08;5.57;;;;;;;;;;4195913;34;20057;-73
2023/05/06 11:03:22;;;;;;;5.00;2.47;;;;;;;;;;4184864;34;20465;-77
2023/05/06 11:05:50;;;;;;;10.02;2.30;;;;;;;;;;4190438;34;20460;-74
2023/05/06 11:08:23;;;;;;;7.57;2.60;;;;;;;;;;4190994;34;20787;-76
2023/05/06 11:10:51;;;;;;;9.20;2.87;;;;;;;;;;4202189;34;20055;-73
2023/05/06 11:13:20;;;;;;;3.30;1.77;;;;;;;;;;4221141;33;20162;-79
2023/05/06 11:15:49;;;;;;;9.98;2.70;;;;;;;;;;4221102;33;20057;-73
2023/05/06 11:18:26;;;;;;;8.02;2.37;;;;;;;;;;4208134;34;20085;-73
2023/05/06 11:21:01;;;;;;;5.07;2.00;;;;;;;;;;4220207;33;20051;-77
2023/05/06 11:23:48;;;;;;;10.10;2.53;;;;;;;;;;4220048;33;20061;-75
2023/05/06 11:26:14;;;;;;;20.90;2.90;;;;;;;;;;4222693;33;20042;-73
2023/05/06 11:28:42;;;;;;;7.75;1.80;;;;;;;;;;4230336;33;20531;-83
2023/05/06 11:31:08;;;;;;;4.57;2.30;;;;;;;;;;4244263;33;20072;-75
2023/05/06 11:33:35;;;;;;;4.32;2.37;;;;;;;;;;4251614;33;20046;-75
2023/05/06 11:36:02;;;;;;;4.25;2.10;;;;;;;;;;4251633;33;20054;-75
2023/05/06 11:38:42;;;;;;;8.27;3.30;;;;;;;;;;4251440;33;20483;-75
2023/05/06 11:41:08;;;;;;;3.22;1.92;;;;;;;;;;4241578;33;20062;-75
2023/05/06 11:43:34;;;;;;;5.95;2.85;;;;;;;;;;4237499;33;20090;-74
2023/05/06 11:46:01;;;;;;;5.50;2.12;;;;;;;;;;4236778;33;20078;-75
2023/05/06 11:48:27;;;;;;;5.12;2.28;;;;;;;;;;4240755;33;20134;-77
2023/05/06 11:50:54;;;;;;;4.95;2.17;;;;;;;;;;4274633;33;20063;-81
2023/05/06 11:53:21;;;;;;;5.37;2.35;;;;;;;;;;4271845;33;20466;-74
2023/05/06 11:55:49;;;;;;;4.97;2.20;;;;;;;;;;4279927;33;20066;-74
2023/05/06 11:58:15;;;;;;;6.75;2.70;;;;;;;;;;4273387;33;20468;-75
2023/05/06 12:00:51;;;;;;;9.13;2.30;;;;;;;;;;4258763;33;20092;-75
2023/05/06 12:03:18;;;;;;;4.90;2.10;;;;;;;;;;4258944;33;20068;-74
2023/05/06 12:05:46;;;;;;;2.35;2.15;;;;;;;;;;4250400;33;20042;-75
2023/05/06 12:08:22;;;;;;;6.18;3.70;;;;;;;;;;4249957;33;20231;-77
2023/05/06 12:10:49;;;;;;;4.00;2.87;;;;;;;;;;4250256;33;20406;-81
2023/05/06 12:13:16;;;;;;;3.47;2.28;;;;;;;;;;4238669;33;20238;-74
2023/05/06 12:15:43;;;;;;;13.18;2.65;;;;;;;;;;4251867;33;20054;-74
2023/05/06 12:18:09;;;;;;;3.83;2.15;;;;;;;;;;4250774;33;20469;-76
2023/05/06 12:20:35;;;;;;;5.20;2.80;;;;;;;;;;4251288;33;20076;-74
2023/05/06 12:23:20;;;;;;;4.68;2.70;;;;;;;;;;4249723;33;20074;-89
2023/05/06 12:25:58;;;;;;;7.25;2.25;;;;;;;;;;4250861;33;20072;-76
2023/05/06 12:28:25;;;;;;;10.35;2.28;;;;;;;;;;4236136;33;20046;-75
2023/05/06 12:30:52;;;;;;;6.05;2.17;;;;;;;;;;4231510;33;20054;-88
2023/05/06 12:33:18;;;;;;;3.67;2.70;;;;;;;;;;4231552;33;20081;-75
2023/05/06 12:35:44;;;;;;;5.40;3.35;;;;;;;;;;4231008;33;20079;-76
2023/05/06 12:38:14;;;;;;;5.62;2.70;;;;;;;;;;4236161;33;20046;-75
2023/05/06 12:40:41;;;;;;;7.57;2.67;;;;;;;;;;4236480;33;20629;-75
2023/05/06 12:43:08;;;;;;;7.10;3.12;;;;;;;;;;4233807;33;20056;-74
2023/05/06 12:45:34;;;;;;;7.53;2.58;;;;;;;;;;4236725;33;20080;-74
2023/05/06 12:48:01;;;;;;;8.07;2.90;;;;;;;;;;4233739;33;20069;-77
2023/05/06 12:50:38;;;;;;;6.80;3.62;;;;;;;;;;4234852;33;20120;-79
2023/05/06 12:53:06;;;;;;;6.72;3.17;;;;;;;;;;4243562;33;20117;-75
2023/05/06 12:55:33;;;;;;;11.95;3.12;;;;;;;;;;4249377;33;20050;-73
2023/05/06 12:57:59;;;;;;;4.68;2.50;;;;;;;;;;4250351;33;20064;-75
2023/05/06 13:00:26;;;;;;;8.73;3.30;;;;;;;;;;4275163;33;20075;-79
2023/05/06 13:02:52;;;;;;;5.35;2.87;;;;;;;;;;4285551;33;20182;-76
2023/05/06 13:05:18;;;;;;;8.23;2.75;;;;;;;;;;4277208;33;20045;-75
2023/05/06 13:07:45;;;;;;;9.30;4.30;;;;;;;;;;4279220;33;20095;-75
2023/05/06 13:10:11;;;;;;;8.45;2.53;;;;;;;;;;4277310;33;20101;-73
2023/05/06 13:12:37;;;;;;;8.00;3.15;;;;;;;;;;4278112;33;20564;-73
2023/05/06 13:15:03;;;;;;;4.93;2.28;;;;;;;;;;4264414;33;20049;-74
2023/05/06 13:17:29;;;;;;;3.47;1.90;;;;;;;;;;4262580;33;20029;-73
2023/05/06 13:19:56;;;;;;;2.37;2.10;;;;;;;;;;4264045;33;20097;-74
2023/05/06 13:22:23;;;;;;;2.87;2.37;;;;;;;;;;4264749;33;20487;-77
2023/05/06 13:24:49;;;;;;;6.15;2.55;;;;;;;;;;4253989;33;20128;-73
2023/05/06 13:27:15;;;;;;;10.25;3.28;;;;;;;;;;4249098;33;20031;-72
2023/05/06 13:29:42;;;;;;;3.22;2.80;;;;;;;;;;4248666;33;20068;-74
2023/05/06 13:32:08;;;;;;;5.05;2.67;;;;;;;;;;4264638;33;20101;-74
2023/05/06 13:34:34;;;;;;;7.25;3.08;;;;;;;;;;4267119;33;20548;-77
2023/05/06 13:37:00;;;;;;;6.55;2.87;;;;;;;;;;4275743;33;20115;-74
2023/05/06 13:39:26;;;;;;;5.50;3.62;;;;;;;;;;4275370;33;20050;-73
2023/05/06 13:41:53;;;;;;;3.50;3.20;;;;;;;;;;4275527;33;20042;-76
2023/05/06 13:44:20;;;;;;;4.18;2.95;;;;;;;;;;4278690;33;20084;-76
2023/05/06 13:46:46;;;;;;;4.97;2.72;;;;;;;;;;4285852;33;20526;-74
2023/05/06 13:49:13;;;;;;;3.30;2.90;;;;;;;;;;4292383;33;20051;-77
2023/05/06 13:51:39;;;;;;;4.60;2.78;;;;;;;;;;4291913;33;20061;-78
2023/05/06 13:54:05;;;;;;;3.75;2.80;;;;;;;;;;4290945;33;20502;-77
2023/05/06 13:56:32;;;;;;;7.65;2.83;;;;;;;;;;4286705;33;20045;-75
2023/05/06 13:58:59;;;;;;;3.53;2.28;;;;;;;;;;4284869;33;20130;-76
2023/05/06 14:01:26;;;;;;;6.82;3.58;;;;;;;;;;4291952;33;20045;-75
2023/05/06 14:03:52;;;;;;;11.18;4.37;;;;;;;;;;4250973;33;20337;-80
2023/05/06 14:06:18;;;;;;;9.82;3.17;;;;;;;;;;4250568;33;20121;-76
2023/05/06 14:08:45;;;;;;;8.07;3.28;;;;;;;;;;4251529;33;20140;-77
2023/05/06 14:11:12;;;;;;;5.07;3.30;;;;;;;;;;4239712;33;20183;-75
2023/05/06 14:13:38;;;;;;;4.75;3.42;;;;;;;;;;4236614;33;20500;-76
2023/05/06 14:16:04;;;;;;;7.12;2.83;;;;;;;;;;4239133;33;20088;-79
2023/05/06 14:18:33;;;;;;;2.25;1.90;;;;;;;;;;4239887;33;20869;-75
2023/05/06 14:20:58;;;;;;;12.52;4.03;;;;;;;;;;4242038;33;20046;-75
2023/05/06 14:23:25;;;;;;;3.92;3.12;;;;;;;;;;4242754;33;20846;-77
2023/05/06 14:25:51;;;;;;;13.18;3.22;;;;;;;;;;4243679;33;20140;-79
2023/05/06 14:28:17;;;;;;;12.23;4.03;;;;;;;;;;4246004;33;20452;-75
2023/05/06 14:30:44;;;;;;;9.82;4.07;;;;;;;;;;4241039;33;20035;-76
2023/05/06 14:33:17;;;;;;;4.70;3.28;;;;;;;;;;4239413;33;20416;-76
2023/05/06 14:35:44;;;;;;;8.15;3.28;;;;;;;;;;4240944;33;20164;-74
2023/05/06 14:38:11;;;;;;;6.05;3.15;;;;;;;;;;4242630;33;20090;-76
2023/05/06 14:40:37;;;;;;;6.75;3.28;;;;;;;;;;4249872;33;20115;-75
2023/05/06 14:43:06;;;;;;;5.90;2.50;;;;;;;;;;4284094;33;20053;-77
2023/05/06 14:45:31;;;;;;;7.97;3.87;;;;;;;;;;4282135;33;20090;-76
2023/05/06 14:47:58;;;;;;;6.53;3.05;;;;;;;;;;4281899;33;20134;-79
2023/05/06 14:50:24;;;;;;;8.13;3.47;;;;;;;;;;4270466;33;20101;-76
2023/05/06 14:52:50;;;;;;;6.25;2.65;;;;;;;;;;4264287;33;20414;-75
2023/05/06 14:55:16;;;;;;;6.50;3.35;;;;;;;;;;4265221;33;20042;-77
2023/05/06 14:57:43;;;;;;;6.10;3.20;;;;;;;;;;4268276;33;20057;-76
2023/05/06 15:00:09;;;;;;;3.30;2.92;;;;;;;;;;4271559;33;20093;-76
2023/05/06 15:02:39;;;;;;;6.70;3.53;;;;;;;;;;4271741;33;20575;-75
2023/05/06 15:05:06;;;;;;;8.25;5.00;;;;;;;;;;4241723;33;20423;-76
2023/05/06 15:07:33;;;;;;;7.35;4.30;;;;;;;;;;4244156;33;20062;-76
2023/05/06 15:09:59;;;;;;;6.35;3.22;;;;;;;;;;4244012;33;20056;-74
2023/05/06 15:12:25;;;;;;;2.83;2.42;;;;;;;;;;4241137;33;20034;-78
2023/05/06 15:14:51;;;;;;;7.53;3.33;;;;;;;;;;4245261;33;20104;-75
2023/05/06 15:17:18;;;;;;;7.07;3.75;;;;;;;;;;4231049;33;20072;-75
2023/05/06 15:19:50;;;;;;;4.12;2.83;;;;;;;;;;4211554;33;20059;-76
2023/05/06 15:22:17;;;;;;;10.40;3.92;;;;;;;;;;4226442;33;20440;-78
2023/05/06 15:24:43;;;;;;;7.20;3.15;;;;;;;;;;4224604;33;20097;-74
2023/05/06 15:27:09;;;;;;;10.95;3.05;;;;;;;;;;4229734;33;20062;-74
2023/05/06 15:29:36;;;;;;;2.75;1.65;;;;;;;;;;4228726;33;20193;-73
2023/05/06 15:32:02;;;;;;;6.07;3.47;;;;;;;;;;4222375;33;20400;-75
2023/05/06 15:34:29;;;;;;;2.83;2.10;;;;;;;;;;4223483;33;20102;-74
2023/05/06 15:36:55;;;;;;;8.63;2.85;;;;;;;;;;4230889;33;20124;-76
2023/05/06 15:39:21;;;;;;;5.28;3.37;;;;;;;;;;4236310;33;20094;-77
2023/05/06 15:41:47;;;;;;;5.85;2.95;;;;;;;;;;4245041;33;20103;-76
2023/05/06 15:44:13;;;;;;;12.65;3.70;;;;;;;;;;4236897;33;20042;-76
2023/05/06 15:46:39;;;;;;;7.12;3.58;;;;;;;;;;4222862;34;20077;-80
2023/05/06 15:49:06;;;;;;;12.15;3.75;;;;;;;;;;4219892;34;20063;-77
2023/05/06 15:51:32;;;;;;;9.13;2.83;;;;;;;;;;4223139;33;20128;-77
2023/05/06 15:53:58;;;;;;;7.22;3.87;;;;;;;;;;4233042;33;20409;-77
2023/05/06 15:56:24;;;;;;;14.25;3.45;;;;;;;;;;4227027;33;20068;-77
2023/05/06 15:58:50;;;;;;;4.78;3.55;;;;;;;;;;4228462;33;20451;-79
2023/05/06 16:01:16;;;;;;;7.20;3.97;;;;;;;;;;4227133;33;20169;-77
2023/05/06 16:03:42;;;;;;;8.98;3.70;;;;;;;;;;4229229;33;20076;-76
2023/05/06 16:06:09;;;;;;;7.95;3.42;;;;;;;;;;4228473;33;20420;-75
2023/05/06 16:08:35;;;;;;;5.15;3.45;;;;;;;;;;4228315;33;20669;-77
2023/05/06 16:11:02;;;;;;;4.90;3.12;;;;;;;;;;4228157;33;20139;-77
2023/05/06 16:13:28;;;;;;;7.93;3.47;;;;;;;;;;4225688;33;20043;-76
2023/05/06 16:15:54;;;;;;;2.30;1.58;;;;;;;;;;4225877;33;20217;-76
2023/05/06 16:18:21;;;;;;;2.25;2.00;;;;;;;;;;4237467;33;20038;-76
2023/05/06 16:20:47;;;;;;;7.12;2.47;;;;;;;;;;4258985;33;21868;-77
2023/05/06 16:23:13;;;;;;;6.85;3.30;;;;;;;;;;4249558;33;20035;-76
2023/05/06 16:25:40;;;;;;;7.37;4.10;;;;;;;;;;4256785;33;21002;-76
2023/05/06 16:28:07;;;;;;;2.90;2.40;;;;;;;;;;4273290;33;20064;-78
2023/05/06 16:30:34;;;;;;;2.78;2.03;;;;;;;;;;4277582;33;20843;-78
2023/05/06 16:33:00;;;;;;;5.20;3.25;;;;;;;;;;4274828;33;20182;-79
2023/05/06 16:35:27;;;;;;;4.85;2.95;;;;;;;;;;4277813;33;20991;-75
2023/05/06 16:37:53;;;;;;;11.60;3.42;;;;;;;;;;4278819;33;20075;-76
2023/05/06 16:40:20;;;;;;;5.32;3.35;;;;;;;;;;4269800;33;20053;-77
2023/05/06 16:42:47;;;;;;;5.37;4.07;;;;;;;;;;4268088;33;20055;-75
2023/05/06 16:45:14;;;;;;;4.35;2.83;;;;;;;;;;4263801;33;20058;-78